createdAt,value
2018-06-21T00:01:07.742Z,8.50
2018-06-21T00:04:41.027Z,8.77
2018-06-21T00:08:14.308Z,9.10
2018-06-21T00:11:47.565Z,10.00
2018-06-21T00:15:20.831Z,9.17
2018-06-21T00:18:54.309Z,10.30
2018-06-21T00:22:28.473Z,9.33
2018-06-21T00:26:01.735Z,9.83
2018-06-21T00:29:35.043Z,10.13
2018-06-21T00:33:08.768Z,9.17
2018-06-21T00:36:42.532Z,9.47
2018-06-21T00:40:15.863Z,9.67
2018-06-21T00:43:49.136Z,10.27
2018-06-21T00:47:22.421Z,11.47
2018-06-21T00:50:55.391Z,10.17
2018-06-21T00:54:28.636Z,11.20
2018-06-21T00:58:01.903Z,10.77
2018-06-21T01:01:35.143Z,9.90
2018-06-21T01:05:08.919Z,11.50
2018-06-21T01:08:42.826Z,10.27
2018-06-21T01:12:22.404Z,9.63
2018-06-21T01:15:55.652Z,10.60
2018-06-21T01:19:28.896Z,10.27
2018-06-21T01:23:02.114Z,9.93
2018-06-21T01:26:35.333Z,8.70
2018-06-21T01:30:08.528Z,9.60
2018-06-21T01:33:41.767Z,9.40
2018-06-21T01:37:15.018Z,11.33
2018-06-21T01:40:48.256Z,9.60
2018-06-21T01:44:21.480Z,10.30
2018-06-21T01:47:54.694Z,11.23
2018-06-21T01:51:27.673Z,10.90
2018-06-21T01:55:01.011Z,11.20
2018-06-21T01:58:34.249Z,11.10
2018-06-21T02:02:07.503Z,11.70
2018-06-21T02:05:40.719Z,11.73
2018-06-21T02:09:14.112Z,11.77
2018-06-21T02:12:47.360Z,12.27
2018-06-21T02:16:20.604Z,11.30
2018-06-21T02:19:53.828Z,12.63
2018-06-21T02:23:27.075Z,11.27
2018-06-21T02:27:00.317Z,11.17
2018-06-21T02:30:34.080Z,11.83
2018-06-21T02:34:07.839Z,11.30
2018-06-21T02:37:41.072Z,11.00
2018-06-21T02:41:14.314Z,11.60
2018-06-21T02:44:47.537Z,11.40
2018-06-21T02:48:20.779Z,11.23
2018-06-21T02:51:54.063Z,13.67
2018-06-21T02:55:27.270Z,13.03
2018-06-21T02:59:00.519Z,13.40
2018-06-21T03:02:33.756Z,12.97
2018-06-21T03:06:07.502Z,14.00
2018-06-21T03:09:40.756Z,14.00
2018-06-21T03:13:13.977Z,14.83
2018-06-21T03:16:47.227Z,14.03
2018-06-21T03:20:20.452Z,14.67
2018-06-21T03:23:53.686Z,13.53
2018-06-21T03:27:26.908Z,11.57
2018-06-21T03:31:00.127Z,12.50
2018-06-21T03:34:33.348Z,12.37
2018-06-21T03:38:06.616Z,12.60
2018-06-21T03:41:39.815Z,12.60
2018-06-21T03:45:13.060Z,12.80
2018-06-21T03:48:46.331Z,14.70
2018-06-21T03:52:19.696Z,14.33
2018-06-21T03:55:53.454Z,14.40
2018-06-21T03:59:26.686Z,15.00
2018-06-21T04:02:59.935Z,13.50
2018-06-21T04:06:33.416Z,14.67
2018-06-21T04:10:06.771Z,15.13
2018-06-21T04:13:40.047Z,14.17
2018-06-21T04:17:13.283Z,14.73
2018-06-21T04:20:46.538Z,15.17
2018-06-21T04:24:19.838Z,13.80
2018-06-21T04:27:53.096Z,13.77
2018-06-21T04:31:26.368Z,14.73
2018-06-21T04:34:59.604Z,14.70
2018-06-21T04:38:32.880Z,15.77
2018-06-21T04:42:06.199Z,16.53
2018-06-21T04:45:39.956Z,15.73
2018-06-21T04:49:13.196Z,15.70
2018-06-21T04:52:46.498Z,13.70
2018-06-21T04:56:19.735Z,15.17
2018-06-21T04:59:52.992Z,16.40
2018-06-21T05:03:26.219Z,14.67
2018-06-21T05:06:59.524Z,15.00
2018-06-21T05:10:32.771Z,15.80
2018-06-21T05:14:06.127Z,16.40
2018-06-21T05:17:39.379Z,15.30
2018-06-21T05:21:12.665Z,14.20
2018-06-21T05:24:45.935Z,16.93
2018-06-21T05:28:19.151Z,14.63
2018-06-21T05:31:52.378Z,14.37
2018-06-21T05:35:25.674Z,15.50
2018-06-21T05:38:58.921Z,14.47
2018-06-21T05:42:32.196Z,13.57
2018-06-21T05:46:05.405Z,13.87
2018-06-21T05:49:38.625Z,14.57
2018-06-21T05:53:11.867Z,13.63
2018-06-21T05:56:45.161Z,13.60
2018-06-21T06:00:18.359Z,12.80
2018-06-21T06:03:51.674Z,12.80
2018-06-21T06:07:24.928Z,12.53
2018-06-21T06:10:58.152Z,10.60
2018-06-21T06:14:31.447Z,11.20
2018-06-21T06:18:04.445Z,11.80
2018-06-21T06:21:39.438Z,10.90
2018-06-21T06:25:12.679Z,11.40
2018-06-21T06:28:46.581Z,11.17
2018-06-21T06:32:19.715Z,9.87
2018-06-21T06:35:54.536Z,8.57
2018-06-21T06:39:27.798Z,9.30
2018-06-21T06:43:01.011Z,8.60
2018-06-21T06:46:34.003Z,7.70
2018-06-21T06:50:07.479Z,7.77
2018-06-21T06:53:40.713Z,7.17
2018-06-21T06:57:13.695Z,7.53
2018-06-21T07:00:47.480Z,8.13
2018-06-21T07:04:21.010Z,7.50
2018-06-21T07:07:54.249Z,6.53
2018-06-21T07:11:28.345Z,6.40
2018-06-21T07:15:01.343Z,6.50
2018-06-21T07:18:34.319Z,6.13
2018-06-21T07:22:08.170Z,5.60
2018-06-21T07:25:41.424Z,6.33
2018-06-21T07:29:14.659Z,6.47
2018-06-21T07:32:48.185Z,6.23
2018-06-21T07:36:21.422Z,6.10
2018-06-21T07:39:54.720Z,5.50
2018-06-21T07:43:27.948Z,5.23
2018-06-21T07:47:01.142Z,5.60
2018-06-21T07:50:34.369Z,5.33
2018-06-21T07:54:07.358Z,5.30
2018-06-21T07:57:40.595Z,5.53
2018-06-21T08:01:13.823Z,5.07
2018-06-21T08:04:47.109Z,4.70
2018-06-21T08:08:20.351Z,5.13
2018-06-21T08:11:53.589Z,4.97
2018-06-21T08:15:26.836Z,4.80
2018-06-21T08:19:00.103Z,6.10
2018-06-21T08:22:33.387Z,4.13
2018-06-21T08:26:06.602Z,4.93
2018-06-21T08:29:39.835Z,4.17
2018-06-21T08:33:12.815Z,4.93
2018-06-21T08:36:46.105Z,4.70
2018-06-21T08:40:19.411Z,4.03
2018-06-21T08:43:52.642Z,4.87
2018-06-21T08:47:25.623Z,4.33
2018-06-21T08:50:58.645Z,4.30
2018-06-21T08:54:31.929Z,4.37
2018-06-21T08:58:05.290Z,3.80
2018-06-21T09:01:38.521Z,4.20
2018-06-21T09:05:11.797Z,4.00
2018-06-21T09:08:45.054Z,4.87
2018-06-21T09:12:18.426Z,4.37
2018-06-21T09:15:51.425Z,4.40
2018-06-21T09:19:24.419Z,4.50
2018-06-21T09:22:57.668Z,4.57
2018-06-21T09:26:30.904Z,4.60
2018-06-21T09:30:04.245Z,3.87
2018-06-21T09:33:37.646Z,3.83
2018-06-21T09:37:10.886Z,4.03
2018-06-21T09:40:49.427Z,4.60
2018-06-21T09:44:29.791Z,3.47
2018-06-21T09:48:08.337Z,3.67
2018-06-21T09:51:41.333Z,3.90
2018-06-21T09:55:14.342Z,3.77
2018-06-21T09:58:47.609Z,3.40
2018-06-21T10:02:20.839Z,3.57
2018-06-21T10:05:54.098Z,4.00
2018-06-21T10:09:27.371Z,4.57
2018-06-21T10:13:00.626Z,3.87
2018-06-21T10:16:33.880Z,3.67
2018-06-21T10:20:07.264Z,4.60
2018-06-21T10:23:40.498Z,3.90
2018-06-21T10:27:13.765Z,4.10
2018-06-21T10:30:47.039Z,5.13
2018-06-21T10:34:20.275Z,4.40
2018-06-21T10:37:53.520Z,4.23
2018-06-21T10:41:26.784Z,4.40
2018-06-21T10:45:00.049Z,3.60
2018-06-21T10:48:33.289Z,3.97
2018-06-21T10:52:06.638Z,3.77
2018-06-21T10:55:39.869Z,4.30
2018-06-21T10:59:13.121Z,3.93
2018-06-21T11:02:46.336Z,4.10
2018-06-21T11:06:19.579Z,4.23
2018-06-21T11:09:52.803Z,4.60
2018-06-21T11:13:26.044Z,4.23
2018-06-21T11:16:59.293Z,5.87
2018-06-21T11:20:32.811Z,5.47
2018-06-21T11:24:06.154Z,5.33
2018-06-21T11:27:39.514Z,5.23
2018-06-21T11:31:12.693Z,4.90
2018-06-21T11:34:45.921Z,5.60
2018-06-21T11:38:19.164Z,5.47
2018-06-21T11:41:52.516Z,5.33
2018-06-21T11:45:25.762Z,5.60
2018-06-21T11:48:58.995Z,5.70
2018-06-21T11:52:32.223Z,5.03
2018-06-21T11:56:05.615Z,4.73
2018-06-21T11:59:38.861Z,4.50
2018-06-21T12:03:12.104Z,4.20
2018-06-21T12:06:45.347Z,3.70
2018-06-21T12:10:18.560Z,3.90
2018-06-21T12:13:51.790Z,4.43
2018-06-21T12:17:25.065Z,3.40
2018-06-21T12:20:58.297Z,2.73
2018-06-21T12:24:31.547Z,3.20
2018-06-21T12:28:04.863Z,2.33
2018-06-21T12:31:38.096Z,2.20
2018-06-21T12:35:11.337Z,2.27
2018-06-21T12:38:44.329Z,2.70
2018-06-21T12:42:17.554Z,2.73
2018-06-21T12:45:50.805Z,2.80
2018-06-21T12:49:24.072Z,3.50
2018-06-21T12:52:57.268Z,2.60
2018-06-21T12:56:30.539Z,2.33
2018-06-21T13:00:04.144Z,2.57
2018-06-21T13:03:37.402Z,3.33
2018-06-21T13:07:11.449Z,2.50
2018-06-21T13:10:56.020Z,2.57
2018-06-21T13:14:29.264Z,3.00
2018-06-21T13:18:02.526Z,2.63
2018-06-21T13:21:35.810Z,3.00
2018-06-21T13:25:09.680Z,2.47
2018-06-21T13:28:42.968Z,2.60
2018-06-21T13:32:16.249Z,2.63
2018-06-21T13:35:49.487Z,2.50
2018-06-21T13:39:22.792Z,2.60
2018-06-21T13:42:56.038Z,3.23
2018-06-21T13:46:29.271Z,2.67
2018-06-21T13:50:02.573Z,2.90
2018-06-21T13:53:35.783Z,3.30
2018-06-21T13:57:09.004Z,4.70
2018-06-21T14:00:42.264Z,4.80
2018-06-21T14:04:15.478Z,4.40
2018-06-21T14:07:48.785Z,5.90
2018-06-21T14:11:22.042Z,6.00
2018-06-21T14:14:55.268Z,5.60
2018-06-21T14:18:28.491Z,5.80
2018-06-21T14:22:01.736Z,6.23
2018-06-21T14:25:35.195Z,4.97
2018-06-21T14:29:08.439Z,5.73
2018-06-21T14:32:41.448Z,5.20
2018-06-21T14:36:14.673Z,5.00
2018-06-21T14:39:48.247Z,4.73
2018-06-21T14:43:21.549Z,4.60
2018-06-21T14:46:54.935Z,4.87
2018-06-21T14:50:27.935Z,4.30
2018-06-21T14:54:01.200Z,3.43
2018-06-21T14:57:34.446Z,2.87
2018-06-21T15:01:07.672Z,3.30
2018-06-21T15:04:40.932Z,3.90
2018-06-21T15:08:13.955Z,4.50
2018-06-21T15:11:47.192Z,3.23
2018-06-21T15:15:20.503Z,6.23
2018-06-21T15:18:53.755Z,3.60
2018-06-21T15:22:26.967Z,3.80
2018-06-21T15:26:00.221Z,3.50
2018-06-21T15:29:33.207Z,3.50
2018-06-21T15:33:06.448Z,5.20
2018-06-21T15:36:39.737Z,5.57
2018-06-21T15:40:13.034Z,6.00
2018-06-21T15:43:46.260Z,6.40
2018-06-21T15:47:19.524Z,7.23
2018-06-21T15:50:53.094Z,7.30
2018-06-21T15:54:26.321Z,8.10
2018-06-21T15:57:59.675Z,7.57
2018-06-21T16:01:32.928Z,7.60
2018-06-21T16:05:05.909Z,7.63
2018-06-21T16:08:39.133Z,8.13
2018-06-21T16:12:12.444Z,8.90
2018-06-21T16:15:47.207Z,8.43
2018-06-21T16:19:20.427Z,7.13
2018-06-21T16:22:53.743Z,6.47
2018-06-21T16:26:27.568Z,6.53
2018-06-21T16:30:05.286Z,5.67
2018-06-21T16:33:56.409Z,6.73
2018-06-21T16:43:22.144Z,6.60
2018-06-21T16:46:55.493Z,4.73
2018-06-21T16:50:33.088Z,3.90
2018-06-21T16:54:06.569Z,4.37
2018-06-21T16:57:39.767Z,3.73
2018-06-21T17:01:13.016Z,3.60
2018-06-21T17:04:46.232Z,2.70
2018-06-21T17:08:19.486Z,3.33
2018-06-21T17:11:52.777Z,3.47
2018-06-21T17:15:26.019Z,2.50
2018-06-21T17:18:59.292Z,3.47
2018-06-21T17:22:32.526Z,2.90
2018-06-21T17:26:05.760Z,3.00
2018-06-21T17:29:39.014Z,3.10
2018-06-21T17:33:12.297Z,3.10
2018-06-21T17:36:45.566Z,2.97
2018-06-21T17:40:18.816Z,3.33
2018-06-21T17:43:52.066Z,2.57
2018-06-21T17:47:25.067Z,2.23
2018-06-21T17:50:58.395Z,2.60
2018-06-21T17:54:31.647Z,3.10
2018-06-21T17:58:04.984Z,2.07
2018-06-21T18:01:38.171Z,2.20
2018-06-21T18:05:11.509Z,2.40
2018-06-21T18:12:20.514Z,2.40
2018-06-21T18:15:53.803Z,2.20
2018-06-21T18:19:27.058Z,2.30
2018-06-21T18:23:00.401Z,2.30
2018-06-21T18:26:33.639Z,2.27
2018-06-21T18:30:06.896Z,2.77
2018-06-21T18:33:40.163Z,2.30
2018-06-21T18:37:13.475Z,2.27
2018-06-21T18:40:46.707Z,2.03
2018-06-21T18:44:19.937Z,2.33
2018-06-21T18:47:53.429Z,1.90
2018-06-21T18:51:26.402Z,2.20
2018-06-21T18:54:59.668Z,1.70
2018-06-21T18:58:32.891Z,1.70
2018-06-21T19:02:06.115Z,2.70
2018-06-21T19:05:39.419Z,1.60
2018-06-21T19:09:17.827Z,2.13
2018-06-21T19:12:51.071Z,1.63
2018-06-21T19:16:24.341Z,1.57
2018-06-21T19:19:57.723Z,1.40
2018-06-21T19:23:31.023Z,2.00
2018-06-21T19:27:04.292Z,2.43
2018-06-21T19:30:37.595Z,1.70
2018-06-21T19:34:10.833Z,1.63
2018-06-21T19:37:44.080Z,2.10
2018-06-21T19:41:17.317Z,2.10
2018-06-21T19:44:50.556Z,2.10
2018-06-21T19:48:23.813Z,1.40
2018-06-21T19:51:57.084Z,1.97
2018-06-21T19:55:30.388Z,2.03
2018-06-21T19:59:03.777Z,2.70
2018-06-21T20:02:42.196Z,1.60
2018-06-21T20:06:15.467Z,2.17
2018-06-21T20:09:48.821Z,1.70
2018-06-21T20:13:22.092Z,2.17
2018-06-21T20:16:55.504Z,2.07
2018-06-21T20:20:33.909Z,1.77
2018-06-21T20:24:07.244Z,1.77
2018-06-21T20:27:40.494Z,1.60
2018-06-21T20:31:15.063Z,1.90
2018-06-21T20:34:48.303Z,2.20
2018-06-21T20:38:21.628Z,2.00
2018-06-21T20:41:55.054Z,1.53
2018-06-21T20:45:28.294Z,2.40
2018-06-21T20:49:01.581Z,1.63
2018-06-21T20:52:34.837Z,1.80
2018-06-21T20:56:08.216Z,1.90
2018-06-21T20:59:41.660Z,1.63
2018-06-21T21:03:14.891Z,1.70
2018-06-21T21:06:48.139Z,1.37
2018-06-21T21:10:21.171Z,1.20
2018-06-21T21:13:54.715Z,1.40
2018-06-21T21:17:28.107Z,1.80
2018-06-21T21:21:01.423Z,1.53
2018-06-21T21:24:34.968Z,1.67
2018-06-21T21:28:08.195Z,1.80
2018-06-21T21:31:41.581Z,1.27
2018-06-21T21:35:14.733Z,2.03
2018-06-21T21:38:48.178Z,1.53
2018-06-21T21:42:21.786Z,1.33
2018-06-21T21:45:55.028Z,1.60
2018-06-21T21:49:30.301Z,2.00
2018-06-21T21:53:03.602Z,1.80
2018-06-21T21:56:36.898Z,1.53
2018-06-21T22:00:26.655Z,1.60
2018-06-21T22:03:59.903Z,2.30
2018-06-21T22:07:33.189Z,2.03
2018-06-21T22:11:06.479Z,1.43
2018-06-21T22:14:39.750Z,1.37
2018-06-21T22:18:13.015Z,1.33
2018-06-21T22:21:46.292Z,1.70
2018-06-21T22:25:20.461Z,1.40
2018-06-21T22:28:54.146Z,1.30
2018-06-21T22:32:27.464Z,1.90
2018-06-21T22:36:00.684Z,1.53
2018-06-21T22:39:34.210Z,1.63
2018-06-21T22:43:07.481Z,1.70
2018-06-21T22:46:40.717Z,1.70
2018-06-21T22:50:13.988Z,1.13
2018-06-21T22:53:47.228Z,1.93
2018-06-21T22:57:21.102Z,1.93
2018-06-21T23:00:54.359Z,1.80
2018-06-21T23:04:27.334Z,1.17
2018-06-21T23:08:00.600Z,1.50
2018-06-21T23:11:33.867Z,2.17
2018-06-21T23:15:07.214Z,1.20
2018-06-21T23:18:51.647Z,1.33
2018-06-21T23:22:24.876Z,2.10
2018-06-21T23:25:58.143Z,1.43
2018-06-21T23:29:31.387Z,1.40
2018-06-21T23:33:04.636Z,1.53
2018-06-21T23:36:37.870Z,1.83
2018-06-21T23:40:11.216Z,1.90
2018-06-21T23:43:44.187Z,1.40
2018-06-21T23:47:17.486Z,2.07
2018-06-21T23:50:50.751Z,1.17
2018-06-21T23:54:24.003Z,1.60
2018-06-21T23:57:57.018Z,1.33
